This is the latest recevied weather packets stored in our database for station/object ENBN. If no packets are shown the sender has not sent any weather packets the latest 10 day(s).
| Time | Temp. | Humidity | Pressure | Rain* | Wind** | Luminosity | Snow |
|---|---|---|---|---|---|---|---|
| 1777917787 | 2.78° C | 86% | 1000 hPa | - | - | - | - |
| 1777915991 | 2.78° C | 86% | 1000 hPa | - | - | - | - |
| 1777914190 | 3.89° C | 80% | 1000 hPa | - | - | - | - |
| 1777912390 | 3.89° C | 80% | 999 hPa | - | - | - | - |
| 1777910588 | 5° C | 75% | 999 hPa | - | - | - | - |
| 1777908788 | 3.89° C | 80% | 999 hPa | - | - | - | - |
| 1777906988 | 3.89° C | 80% | 999 hPa | - | - | - | - |
| 1777905189 | 3.89° C | 80% | 999 hPa | - | - | - | - |
| 1777903389 | 5° C | 75% | 999 hPa | - | - | - | - |
| 1777901588 | 5.56° C | 75% | 999 hPa | - | - | - | - |
| 1777899788 | 3.89° C | 80% | 999 hPa | - | - | - | - |
| 1777897988 | 5° C | 70% | 999 hPa | - | - | - | - |
| 1777896188 | 3.89° C | 80% | 999 hPa | - | - | - | - |
| 1777894389 | 5° C | 80% | 998 hPa | - | - | - | - |
| 1777892587 | 3.89° C | 80% | 998 hPa | - | - | - | - |
| 1777890787 | 5.56° C | 75% | 998 hPa | - | - | - | - |
| 1777888987 | 5° C | 80% | 998 hPa | - | - | - | - |
| 1777887187 | 3.89° C | 86% | 998 hPa | - | - | - | - |
| 1777885388 | 3.89° C | 86% | 998 hPa | - | - | - | - |
| 1777883587 | 3.89° C | 86% | 998 hPa | - | - | - | - |
| 1777881787 | 2.78° C | 93% | 998 hPa | - | - | - | - |
| 1777879988 | 2.78° C | 86% | 997 hPa | - | - | - | - |
| 1777878188 | 3.89° C | 86% | 995 hPa | - | - | - | - |
| 1777876388 | 3.89° C | 86% | 994 hPa | - | - | - | - |
| 1777874587 | 3.89° C | 80% | 995 hPa | - | - | - | - |
* Rain since midnight (hover to see other rain measurements)
** Current wind speed in m/s (hover to see current wind gust speed)